Time;durP1;ratioP1;P1;durP2;ratioP2;P2;SDS_P1;SDS_P2;PMS_P1;PMS_P2;Temp;Humidity;BMP_temperature;BMP_pressure;BME280_temperature;BME280_humidity;BME280_pressure;Samples;Min_cycle;Max_cycle;Signal;HPM_P1;HPM_P2
2022/10/06 00:01:04;;;;;;;3.73;3.33;;;;;;;14.00;nan;100366.03;4857869;29;20195;-75
2022/10/06 00:03:29;;;;;;;3.80;3.20;;;;;;;14.00;nan;100371.31;4857227;29;20192;-75
2022/10/06 00:05:59;;;;;;;3.87;3.00;;;;;;;13.97;nan;100365.38;4857105;29;20199;-75
2022/10/06 00:08:25;;;;;;;4.55;3.40;;;;;;;13.92;nan;100370.97;4857955;29;20228;-75
2022/10/06 00:10:54;;;;;;;4.17;3.13;;;;;;;13.87;nan;100371.25;4858076;29;20192;-75
2022/10/06 00:13:20;;;;;;;4.50;3.10;;;;;;;13.82;nan;100364.59;4858451;29;21360;-75
2022/10/06 00:15:46;;;;;;;10.50;3.53;;;;;;;13.78;nan;100363.94;4856714;29;20196;-75
2022/10/06 00:18:11;;;;;;;7.30;4.13;;;;;;;13.72;nan;100365.19;4858801;29;20302;-75
2022/10/06 00:20:36;;;;;;;4.27;3.67;;;;;;;13.69;nan;100372.44;4839716;29;20296;-75
2022/10/06 00:23:02;;;;;;;3.30;3.00;;;;;;;13.66;nan;100373.50;4837269;29;20197;-75
2022/10/06 00:25:27;;;;;;;6.87;3.90;;;;;;;13.67;nan;100379.63;4838947;29;20288;-75
2022/10/06 00:27:53;;;;;;;3.97;3.13;;;;;;;13.71;nan;100389.03;4841492;29;20725;-75
2022/10/06 00:30:25;;;;;;;4.30;3.20;;;;;;;13.72;nan;100377.56;4838838;29;20276;-75
2022/10/06 00:32:54;;;;;;;4.10;3.05;;;;;;;13.74;nan;100375.63;4838610;29;20189;-75
2022/10/06 00:35:20;;;;;;;4.88;3.47;;;;;;;13.75;nan;100381.78;4836761;29;20184;-75
2022/10/06 00:37:46;;;;;;;3.83;3.53;;;;;;;13.74;nan;100383.56;4840646;29;20192;-75
2022/10/06 00:40:11;;;;;;;2.63;2.30;;;;;;;13.76;nan;100386.09;4841093;29;21018;-75
2022/10/06 00:43:26;;;;;;;4.33;2.90;;;;;;;13.75;nan;100385.28;4868156;29;20189;-75
2022/10/06 00:45:52;;;;;;;6.68;4.10;;;;;;;13.76;nan;100386.94;4846479;29;20213;-75
2022/10/06 00:48:24;;;;;;;3.35;2.92;;;;;;;13.75;nan;100393.19;4838344;29;20217;-75
2022/10/06 00:50:52;;;;;;;3.83;3.53;;;;;;;13.75;nan;100393.19;4840962;29;20196;-75
2022/10/06 00:53:19;;;;;;;6.93;3.35;;;;;;;13.72;nan;100394.22;4838966;29;20216;-75
2022/10/06 00:55:45;;;;;;;4.60;3.05;;;;;;;13.68;nan;100392.72;4841211;29;20260;-75
2022/10/06 00:58:11;;;;;;;4.63;4.23;;;;;;;13.63;nan;100393.97;4846127;29;20216;-75
2022/10/06 01:00:39;;;;;;;3.25;2.85;;;;;;;13.56;nan;100401.44;4837767;29;20185;-75
2022/10/06 01:03:11;;;;;;;3.20;2.90;;;;;;;13.54;nan;100405.13;4839588;29;20185;-74
2022/10/06 01:05:45;;;;;;;4.13;3.13;;;;;;;13.54;nan;100413.03;4840914;29;20200;-74
2022/10/06 01:08:13;;;;;;;3.28;2.55;;;;;;;13.53;nan;100406.03;4844235;29;20237;-75
2022/10/06 01:10:55;;;;;;;2.95;2.65;;;;;;;13.52;nan;100418.41;4847676;29;20207;-75
2022/10/06 01:13:31;;;;;;;3.28;2.88;;;;;;;13.50;nan;100409.72;4838648;29;20220;-74
2022/10/06 01:16:22;;;;;;;3.53;3.20;;;;;;;13.46;nan;100409.06;4839628;29;20208;-75
2022/10/06 01:18:47;;;;;;;2.72;2.53;;;;;;;13.42;nan;100412.88;4844800;29;20243;-75
2022/10/06 01:21:16;;;;;;;4.13;2.90;;;;;;;13.38;nan;100413.16;4860246;29;20193;-75
2022/10/06 01:23:41;;;;;;;3.65;2.97;;;;;;;13.36;nan;100413.22;4857982;29;20602;-75
2022/10/06 01:26:10;;;;;;;6.80;4.20;;;;;;;13.33;nan;100408.16;4863755;29;20802;-75
2022/10/06 01:28:37;;;;;;;4.60;3.50;;;;;;;13.30;nan;100416.25;4859597;29;20529;-76
2022/10/06 01:31:03;;;;;;;4.78;3.10;;;;;;;13.28;nan;100415.50;4857610;29;20650;-76
2022/10/06 01:33:30;;;;;;;3.40;3.10;;;;;;;13.28;nan;100419.00;4863838;29;20192;-76
2022/10/06 01:35:56;;;;;;;3.53;3.20;;;;;;;13.30;nan;100424.16;4857169;29;20196;-76
2022/10/06 01:38:28;;;;;;;7.32;3.47;;;;;;;13.33;nan;100418.69;4860132;29;20222;-76
2022/10/06 01:40:58;;;;;;;5.35;3.10;;;;;;;13.34;nan;100420.41;4864518;29;21018;-76
2022/10/06 01:43:24;;;;;;;4.63;3.63;;;;;;;13.35;nan;100437.09;4856584;29;20184;-76
2022/10/06 01:45:57;;;;;;;5.20;3.13;;;;;;;13.37;nan;100430.78;4857946;29;20208;-76
2022/10/06 01:48:23;;;;;;;6.85;3.92;;;;;;;13.36;nan;100429.06;4877413;29;20221;-76
2022/10/06 01:50:50;;;;;;;6.00;3.60;;;;;;;13.31;nan;100428.50;4875395;29;20283;-75
2022/10/06 01:53:16;;;;;;;5.50;3.10;;;;;;;13.26;nan;100427.97;4860243;29;20972;-76
2022/10/06 01:55:42;;;;;;;3.63;2.65;;;;;;;13.13;nan;100424.34;4889801;29;20205;-76
2022/10/06 01:58:10;;;;;;;3.53;2.50;;;;;;;13.05;nan;100441.47;4860241;29;20212;-76
2022/10/06 02:00:36;;;;;;;4.25;3.90;;;;;;;13.00;nan;100454.09;4862383;29;20267;-76
2022/10/06 02:03:02;;;;;;;3.38;2.63;;;;;;;12.89;nan;100450.41;4890846;29;20176;-75
2022/10/06 02:05:28;;;;;;;7.55;3.65;;;;;;;12.85;nan;100457.63;4874316;29;20227;-76
2022/10/06 02:07:54;;;;;;;5.20;2.80;;;;;;;12.80;nan;100457.09;4861949;29;20669;-76
2022/10/06 02:10:19;;;;;;;3.67;2.90;;;;;;;12.80;nan;100457.94;4864623;29;20187;-76
2022/10/06 02:12:52;;;;;;;6.75;3.55;;;;;;;12.80;nan;100459.72;4861257;29;20471;-76
2022/10/06 02:15:20;;;;;;;8.60;3.38;;;;;;;12.80;nan;100457.09;4890360;29;20751;-76
2022/10/06 02:17:46;;;;;;;3.33;2.90;;;;;;;12.81;nan;100461.41;4862332;29;20201;-76
2022/10/06 02:20:12;;;;;;;3.53;3.22;;;;;;;12.84;nan;100463.84;4859865;29;20925;-76
2022/10/06 02:22:39;;;;;;;7.57;3.37;;;;;;;12.86;nan;100467.25;4858427;29;20184;-76
2022/10/06 02:25:05;;;;;;;4.72;3.50;;;;;;;12.88;nan;100472.41;4878732;29;20196;-76
2022/10/06 02:27:31;;;;;;;3.80;2.85;;;;;;;12.85;nan;100473.44;4858442;29;20194;-76
2022/10/06 02:29:56;;;;;;;5.63;3.50;;;;;;;12.83;nan;100472.72;4855240;29;20213;-76
2022/10/06 02:32:23;;;;;;;3.33;3.03;;;;;;;12.81;nan;100474.59;4858107;29;20215;-76
2022/10/06 02:34:49;;;;;;;2.43;2.20;;;;;;;12.80;nan;100473.75;4860444;29;20196;-76
2022/10/06 02:37:16;;;;;;;3.83;3.17;;;;;;;12.79;nan;100477.28;4888506;29;20192;-76
2022/10/06 02:39:41;;;;;;;4.28;3.30;;;;;;;12.77;nan;100479.19;4862647;29;20263;-76
2022/10/06 02:42:07;;;;;;;3.90;2.70;;;;;;;12.76;nan;100495.09;4891824;29;20192;-76
2022/10/06 02:44:32;;;;;;;4.47;3.13;;;;;;;12.76;nan;100495.94;4889666;29;20318;-76
2022/10/06 02:46:58;;;;;;;3.97;3.10;;;;;;;12.78;nan;100495.88;4864696;29;20227;-75
2022/10/06 02:49:24;;;;;;;7.85;3.13;;;;;;;12.80;nan;100499.25;4866603;29;20295;-75
2022/10/06 02:51:50;;;;;;;3.47;3.17;;;;;;;12.81;nan;100508.84;4865829;29;20208;-75
2022/10/06 02:54:16;;;;;;;3.60;3.30;;;;;;;12.80;nan;100515.09;4863503;29;20283;-76
2022/10/06 02:56:41;;;;;;;4.63;3.40;;;;;;;12.79;nan;100524.75;4865282;29;20510;-76
2022/10/06 02:59:06;;;;;;;4.40;4.00;;;;;;;12.76;nan;100516.19;4860682;29;20244;-76
2022/10/06 03:01:34;;;;;;;4.45;3.90;;;;;;;12.74;nan;100523.31;4862281;29;20249;-76
2022/10/06 03:04:06;;;;;;;4.50;3.42;;;;;;;12.71;nan;100528.78;4861905;29;20184;-76
2022/10/06 03:06:33;;;;;;;4.28;2.90;;;;;;;12.71;nan;100532.25;4860339;29;20199;-75
2022/10/06 03:09:19;;;;;;;5.18;3.33;;;;;;;12.76;nan;100534.63;4863538;29;20270;-76
2022/10/06 03:11:48;;;;;;;5.33;2.70;;;;;;;12.78;nan;100538.03;4864489;29;20236;-76
2022/10/06 03:14:46;;;;;;;7.88;3.58;;;;;;;12.78;nan;100532.78;4860238;29;20291;-76
2022/10/06 03:17:11;;;;;;;3.20;3.00;;;;;;;12.79;nan;100545.84;4857664;29;20701;-76
2022/10/06 03:19:44;;;;;;;4.78;3.15;;;;;;;12.78;nan;100549.44;4863422;29;20244;-76
2022/10/06 03:22:09;;;;;;;4.93;3.10;;;;;;;12.77;nan;100549.50;4859415;29;20184;-76
2022/10/06 03:24:41;;;;;;;4.03;3.63;;;;;;;12.75;nan;100546.13;4860478;29;20201;-74
2022/10/06 03:27:06;;;;;;;6.90;3.50;;;;;;;12.73;nan;100555.91;4863668;29;20449;-74
2022/10/06 03:29:32;;;;;;;5.07;3.60;;;;;;;12.73;nan;100561.19;4862715;29;20233;-74
2022/10/06 03:31:59;;;;;;;3.92;3.50;;;;;;;12.75;nan;100560.16;4865181;29;20326;-74
2022/10/06 03:34:25;;;;;;;3.70;2.97;;;;;;;12.77;nan;100560.06;4864437;29;20203;-74
2022/10/06 03:36:51;;;;;;;5.10;3.42;;;;;;;12.79;nan;100566.09;4866660;29;20195;-74
2022/10/06 03:39:20;;;;;;;3.60;3.00;;;;;;;12.81;nan;100565.06;4858175;29;20237;-74
2022/10/06 03:41:45;;;;;;;3.67;3.17;;;;;;;12.80;nan;100563.38;4861286;29;20200;-74
2022/10/06 03:44:12;;;;;;;4.13;3.28;;;;;;;12.81;nan;100567.72;4860105;29;20210;-72
2022/10/06 03:46:40;;;;;;;7.80;3.05;;;;;;;12.80;nan;100573.09;4889077;29;20211;-72
2022/10/06 03:49:07;;;;;;;4.17;3.77;;;;;;;12.81;nan;100580.03;4861245;29;20330;-73
2022/10/06 03:51:36;;;;;;;4.95;3.42;;;;;;;12.82;nan;100579.94;4865684;29;20450;-75
2022/10/06 03:54:02;;;;;;;5.72;3.47;;;;;;;12.87;nan;100577.03;4854526;29;20211;-74
2022/10/06 03:56:36;;;;;;;3.78;3.15;;;;;;;12.92;nan;100577.63;4859249;29;20298;-74
2022/10/06 03:59:05;;;;;;;4.43;2.67;;;;;;;12.99;nan;100589.53;4857585;29;20232;-74
2022/10/06 04:01:34;;;;;;;4.45;3.22;;;;;;;13.05;nan;100588.34;4874118;29;20206;-74
2022/10/06 04:04:03;;;;;;;4.43;4.03;;;;;;;13.16;nan;100595.63;4888719;29;20465;-74
2022/10/06 04:06:33;;;;;;;6.97;3.90;;;;;;;13.21;nan;100597.03;4865112;29;20458;-74
2022/10/06 04:08:59;;;;;;;4.47;3.55;;;;;;;13.25;nan;100603.81;4855709;29;20295;-74
2022/10/06 04:11:28;;;;;;;4.25;3.85;;;;;;;13.30;nan;100608.03;4859824;29;20269;-74
2022/10/06 04:13:59;;;;;;;6.40;3.92;;;;;;;13.34;nan;100615.69;4886515;29;20218;-74
2022/10/06 04:16:28;;;;;;;4.55;3.78;;;;;;;13.39;nan;100629.44;4888363;29;20209;-74
2022/10/06 04:18:56;;;;;;;3.90;3.45;;;;;;;13.44;nan;100629.16;4857636;29;20245;-74
2022/10/06 04:21:23;;;;;;;3.78;3.25;;;;;;;13.47;nan;100632.50;4859607;29;20202;-75
2022/10/06 04:23:51;;;;;;;4.35;3.63;;;;;;;13.50;nan;100626.16;4858043;29;20264;-75
2022/10/06 04:26:18;;;;;;;5.50;3.60;;;;;;;13.52;nan;100634.00;4871518;29;20231;-75
2022/10/06 04:28:48;;;;;;;4.85;4.30;;;;;;;13.54;nan;100624.19;4884873;29;20253;-75
2022/10/06 04:31:22;;;;;;;4.13;3.63;;;;;;;13.56;nan;100628.44;4858130;29;20226;-75
2022/10/06 04:33:59;;;;;;;3.65;2.95;;;;;;;13.59;nan;100628.25;4862339;29;20463;-75
2022/10/06 04:36:28;;;;;;;6.07;4.00;;;;;;;13.63;nan;100631.56;4883398;29;20211;-72
2022/10/06 04:38:57;;;;;;;3.17;2.90;;;;;;;13.64;nan;100630.63;4856935;29;20233;-72
2022/10/06 04:41:27;;;;;;;5.55;3.85;;;;;;;13.67;nan;100627.81;4856956;29;20652;-75
2022/10/06 04:43:53;;;;;;;3.97;3.53;;;;;;;13.68;nan;100637.41;4886604;29;20298;-75
2022/10/06 04:46:21;;;;;;;4.88;3.80;;;;;;;13.70;nan;100627.63;4854937;29;20239;-75
2022/10/06 04:48:49;;;;;;;3.50;3.20;;;;;;;13.70;nan;100636.38;4885378;29;20255;-75
2022/10/06 04:51:15;;;;;;;4.95;4.13;;;;;;;13.71;nan;100643.34;4857037;29;20199;-75
2022/10/06 04:53:45;;;;;;;5.80;3.65;;;;;;;13.72;nan;100652.13;4859398;29;20234;-74
2022/10/06 04:56:19;;;;;;;4.55;3.90;;;;;;;13.72;nan;100652.13;4863126;29;20206;-75
2022/10/06 04:58:47;;;;;;;3.80;3.33;;;;;;;13.72;nan;100657.41;4873605;29;20234;-75
2022/10/06 05:01:13;;;;;;;3.47;3.20;;;;;;;13.69;nan;100655.81;4863664;29;20237;-75
2022/10/06 05:03:39;;;;;;;6.53;4.60;;;;;;;13.71;nan;100669.75;4857286;29;20760;-75
2022/10/06 05:06:07;;;;;;;4.40;4.00;;;;;;;13.72;nan;100670.63;4887222;29;20205;-75
2022/10/06 05:08:34;;;;;;;5.28;4.10;;;;;;;13.74;nan;100676.63;4869484;29;20448;-74
2022/10/06 05:11:05;;;;;;;4.95;3.58;;;;;;;13.75;nan;100664.31;4859208;29;20298;-75
2022/10/06 05:13:37;;;;;;;5.40;3.67;;;;;;;13.77;nan;100681.75;4858371;29;20342;-75
2022/10/06 05:16:07;;;;;;;5.45;3.88;;;;;;;13.80;nan;100678.94;4855228;29;20231;-75
2022/10/06 05:18:35;;;;;;;6.28;4.10;;;;;;;13.81;nan;100677.97;4856216;29;20242;-75
2022/10/06 05:21:04;;;;;;;5.65;3.70;;;;;;;13.83;nan;100681.38;4859775;29;20204;-76
2022/10/06 05:23:31;;;;;;;4.93;3.05;;;;;;;13.84;nan;100683.06;4859982;29;20275;-75
2022/10/06 05:25:57;;;;;;;5.65;4.45;;;;;;;13.86;nan;100675.91;4860992;29;20225;-74
2022/10/06 05:28:25;;;;;;;4.70;4.30;;;;;;;13.87;nan;100679.41;4860506;29;20522;-75
2022/10/06 05:30:57;;;;;;;8.02;4.07;;;;;;;13.87;nan;100685.53;4859456;29;20661;-74
2022/10/06 05:33:25;;;;;;;6.47;4.53;;;;;;;13.89;nan;100696.84;4861735;29;20783;-75
2022/10/06 05:35:52;;;;;;;5.70;4.25;;;;;;;13.93;nan;100698.38;4890740;29;20958;-75
2022/10/06 05:38:18;;;;;;;6.88;4.30;;;;;;;13.94;nan;100705.38;4862253;29;20474;-72
2022/10/06 05:40:44;;;;;;;8.27;4.20;;;;;;;13.97;nan;100704.31;4875465;29;20685;-73
2022/10/06 05:43:13;;;;;;;6.30;4.33;;;;;;;14.00;nan;100708.56;4860974;29;20425;-74
2022/10/06 05:45:39;;;;;;;4.88;3.95;;;;;;;14.01;nan;100711.09;4858924;29;20193;-74
2022/10/06 05:48:04;;;;;;;4.70;3.57;;;;;;;14.04;nan;100715.34;4863813;29;20227;-74
2022/10/06 05:50:30;;;;;;;6.70;4.87;;;;;;;14.06;nan;100724.06;4860113;29;20199;-74
2022/10/06 05:52:58;;;;;;;4.97;4.23;;;;;;;14.08;nan;100724.81;4864046;29;20310;-76
2022/10/06 05:55:25;;;;;;;5.63;4.43;;;;;;;14.12;nan;100731.59;4876062;29;20322;-75
2022/10/06 05:57:53;;;;;;;5.88;4.50;;;;;;;14.13;nan;100725.38;4866537;29;20188;-75
2022/10/06 06:00:18;;;;;;;9.13;5.70;;;;;;;14.15;nan;100727.00;4858409;29;20208;-75
2022/10/06 06:02:45;;;;;;;9.80;5.17;;;;;;;14.17;nan;100718.97;4866147;29;20185;-74
2022/10/06 06:05:12;;;;;;;12.70;11.30;;;;;;;14.22;nan;100718.69;4877330;29;20445;-74
2022/10/06 06:07:41;;;;;;;7.30;6.60;;;;;;;14.21;nan;100738.97;4862179;29;20237;-75
2022/10/06 06:10:08;;;;;;;6.82;6.13;;;;;;;14.23;nan;100744.16;4862650;29;20224;-73
2022/10/06 06:12:36;;;;;;;10.85;7.97;;;;;;;14.25;nan;100743.13;4862739;29;20498;-75
2022/10/06 06:18:00;;;;;;;8.55;5.28;;;;;;;14.33;nan;100753.25;4889967;29;20230;-75
2022/10/06 06:20:25;;;;;;;5.30;4.15;;;;;;;14.37;nan;100763.53;4859788;29;20781;-75
2022/10/06 06:22:52;;;;;;;5.20;4.17;;;;;;;14.43;nan;100766.75;4866682;29;20188;-75
2022/10/06 06:25:19;;;;;;;5.05;3.15;;;;;;;14.46;nan;100767.41;4890137;29;20198;-75
2022/10/06 06:27:44;;;;;;;5.13;3.53;;;;;;;14.51;nan;100772.41;4865763;29;20775;-75
2022/10/06 06:30:10;;;;;;;3.90;3.50;;;;;;;14.57;nan;100758.84;4861955;29;21196;-75
2022/10/06 06:32:36;;;;;;;5.07;3.37;;;;;;;14.67;nan;100761.78;4865799;29;20199;-75
2022/10/06 06:35:02;;;;;;;4.50;3.67;;;;;;;14.74;nan;100763.06;4887689;29;20453;-75
2022/10/06 06:37:29;;;;;;;4.30;3.80;;;;;;;14.83;nan;100773.94;4893253;29;20749;-75
2022/10/06 06:39:55;;;;;;;4.85;3.22;;;;;;;14.90;nan;100779.69;4856827;29;20561;-72
2022/10/06 06:42:21;;;;;;;5.00;4.13;;;;;;;14.95;nan;100766.16;4860134;29;20629;-72
2022/10/06 06:44:46;;;;;;;4.47;3.30;;;;;;;15.00;nan;100779.97;4858570;29;20429;-73
2022/10/06 06:47:20;;;;;;;7.88;4.05;;;;;;;15.04;nan;100782.31;4859227;29;20199;-73
2022/10/06 06:49:47;;;;;;;4.15;3.70;;;;;;;15.12;nan;100778.31;4871532;29;20287;-73
2022/10/06 06:52:13;;;;;;;4.88;3.70;;;;;;;15.17;nan;100781.53;4886719;29;20306;-75
2022/10/06 06:54:39;;;;;;;4.28;3.88;;;;;;;15.22;nan;100785.56;4859366;29;20419;-73
2022/10/06 06:57:12;;;;;;;9.13;4.53;;;;;;;15.26;nan;100787.09;4858885;29;20507;-73
2022/10/06 06:59:38;;;;;;;6.90;4.10;;;;;;;15.33;nan;100789.34;4888643;29;20294;-72
2022/10/06 07:02:05;;;;;;;5.80;4.55;;;;;;;15.36;nan;100797.06;4856431;29;20215;-73
2022/10/06 07:04:36;;;;;;;6.65;4.40;;;;;;;15.40;nan;100793.28;4864345;29;20723;-73
2022/10/06 07:07:02;;;;;;;4.53;4.13;;;;;;;15.44;nan;100802.72;4859833;29;20195;-72
2022/10/06 07:09:30;;;;;;;6.45;4.15;;;;;;;15.48;nan;100804.22;4865645;29;20211;-73
2022/10/06 07:12:05;;;;;;;5.72;4.65;;;;;;;15.52;nan;100808.38;4888665;29;20220;-73
2022/10/06 07:14:31;;;;;;;4.60;3.73;;;;;;;15.57;nan;100814.22;4866504;29;20260;-73
2022/10/06 07:25:23;;;;;;;4.13;3.72;;;;;;;15.70;nan;100827.56;4886829;29;20188;-73
2022/10/06 07:27:50;;;;;;;7.90;4.30;;;;;;;15.72;nan;100824.81;4872848;29;20188;-73
2022/10/06 07:30:21;;;;;;;7.38;4.13;;;;;;;15.75;nan;100829.91;4888709;29;20198;-73
2022/10/06 07:32:51;;;;;;;5.15;3.28;;;;;;;15.77;nan;100830.63;4889509;29;20310;-73
2022/10/06 07:35:20;;;;;;;4.25;3.65;;;;;;;15.80;nan;100835.75;4886559;29;20192;-73
2022/10/06 07:37:49;;;;;;;4.35;3.60;;;;;;;15.81;nan;100834.78;4864726;29;20682;-73
2022/10/06 07:40:15;;;;;;;7.40;4.20;;;;;;;15.84;nan;100838.06;4855724;29;20674;-73
2022/10/06 07:42:47;;;;;;;7.78;4.70;;;;;;;15.87;nan;100837.03;4859024;29;20223;-73
2022/10/06 07:45:37;;;;;;;9.50;4.32;;;;;;;15.88;nan;100842.25;4856184;29;20748;-73
2022/10/06 07:48:07;;;;;;;4.05;3.53;;;;;;;15.88;nan;100844.88;4856775;29;20196;-73
2022/10/06 07:50:34;;;;;;;6.20;4.00;;;;;;;15.90;nan;100856.25;4885779;29;20616;-73
2022/10/06 07:53:07;;;;;;;5.20;4.20;;;;;;;15.91;nan;100847.31;4876976;29;20220;-73
2022/10/06 07:55:38;;;;;;;4.90;3.67;;;;;;;15.91;nan;100857.09;4884960;29;20505;-74
2022/10/06 07:58:24;;;;;;;5.75;3.45;;;;;;;15.92;nan;100858.78;4887451;29;20641;-73
2022/10/06 08:00:53;;;;;;;8.18;4.20;;;;;;;15.93;nan;100860.47;4856829;29;20497;-73
2022/10/06 08:03:19;;;;;;;6.20;4.57;;;;;;;15.93;nan;100857.81;4856506;29;20207;-73
2022/10/06 08:05:58;;;;;;;4.72;3.20;;;;;;;15.93;73.59;100856.03;5046268;28;20527;-74
2022/10/06 08:08:23;;;;;;;3.05;2.58;;;;;;;15.97;73.42;100846.06;5033021;28;20217;-74
2022/10/06 08:10:54;;;;;;;7.23;2.80;;;;;;;16.00;73.10;100847.66;5034466;28;20186;-74
2022/10/06 08:13:20;;;;;;;5.15;2.10;;;;;;;16.05;72.87;100849.06;5033515;28;20281;-74
2022/10/06 08:15:48;;;;;;;2.90;2.30;;;;;;;16.08;72.56;100851.50;5032384;28;20276;-74
2022/10/06 08:18:15;;;;;;;3.85;1.73;;;;;;;16.11;72.01;100853.94;5031477;28;20210;-75
2022/10/06 08:20:41;;;;;;;5.97;2.22;;;;;;;16.14;71.44;100859.03;5033271;28;20189;-74
2022/10/06 08:23:09;;;;;;;3.37;2.10;;;;;;;16.14;71.04;100859.03;5031711;28;20669;-74
2022/10/06 08:25:41;;;;;;;2.45;1.40;;;;;;;16.15;70.69;100863.41;5031375;28;20677;-74
2022/10/06 08:28:07;;;;;;;3.78;1.58;;;;;;;16.18;70.29;100865.00;5031424;28;20202;-74
2022/10/06 08:30:33;;;;;;;3.00;1.65;;;;;;;16.23;69.67;100865.53;5031190;28;20197;-74
2022/10/06 08:32:59;;;;;;;2.60;1.43;;;;;;;16.26;69.10;100867.16;5030772;28;20174;-74
2022/10/06 08:35:24;;;;;;;4.43;1.43;;;;;;;16.28;68.81;100862.56;5030341;28;20722;-74
2022/10/06 08:37:51;;;;;;;6.73;2.27;;;;;;;16.32;68.55;100866.72;5029537;28;20191;-75
2022/10/06 08:40:17;;;;;;;4.88;1.38;;;;;;;16.35;68.11;100864.69;5029571;28;20423;-74
2022/10/06 08:42:53;;;;;;;4.93;1.17;;;;;;;16.42;67.85;100874.88;5028996;28;20201;-74
2022/10/06 08:45:27;;;;;;;3.10;1.90;;;;;;;16.48;67.52;100867.38;5029120;28;20189;-74
2022/10/06 08:48:03;;;;;;;3.78;1.70;;;;;;;16.54;67.24;100872.25;5028946;28;20665;-74
2022/10/06 08:50:37;;;;;;;5.75;1.80;;;;;;;16.60;66.99;100869.16;5029745;28;20196;-74
2022/10/06 08:53:16;;;;;;;3.42;1.42;;;;;;;16.67;66.71;100874.06;5029368;28;20201;-75
2022/10/06 08:55:50;;;;;;;2.28;1.80;;;;;;;16.73;66.21;100871.84;5028583;28;20186;-75
2022/10/06 08:58:33;;;;;;;2.53;1.35;;;;;;;16.79;65.95;100876.75;5028045;28;20238;-74
2022/10/06 09:01:13;;;;;;;2.85;1.30;;;;;;;16.87;65.59;100872.72;5028922;28;20640;-75
2022/10/06 09:03:40;;;;;;;6.13;1.70;;;;;;;16.96;65.09;100874.75;5028852;28;20275;-74
2022/10/06 09:06:15;;;;;;;7.03;1.17;;;;;;;17.05;64.79;100881.22;5029378;28;20229;-75
2022/10/06 09:08:57;;;;;;;2.40;1.60;;;;;;;17.11;64.56;100878.94;5026291;28;20213;-75
2022/10/06 09:11:44;;;;;;;3.72;1.55;;;;;;;17.18;64.36;100879.38;5028577;28;20194;-75
2022/10/06 09:14:16;;;;;;;4.25;1.85;;;;;;;17.22;64.16;100886.16;5026608;28;20194;-75
2022/10/06 09:16:49;;;;;;;5.07;1.50;;;;;;;17.24;63.94;100886.91;5016647;28;20639;-74
2022/10/06 09:19:20;;;;;;;3.58;1.90;;;;;;;17.28;63.67;100884.88;5013505;28;20204;-75
2022/10/06 09:21:51;;;;;;;5.15;1.45;;;;;;;17.33;63.31;100894.19;5013569;28;20657;-75
2022/10/06 09:24:27;;;;;;;8.48;2.20;;;;;;;17.38;62.97;100889.41;5013825;28;20208;-74
2022/10/06 09:26:57;;;;;;;8.35;2.00;;;;;;;17.42;62.83;100888.25;5012599;28;20206;-74
2022/10/06 09:29:22;;;;;;;5.60;1.73;;;;;;;17.45;62.47;100893.34;5011685;28;20642;-75
2022/10/06 09:31:51;;;;;;;3.90;2.53;;;;;;;17.46;62.05;100897.69;5012364;28;20202;-74
2022/10/06 09:34:39;;;;;;;1.75;1.65;;;;;;;17.51;61.75;100888.53;5011490;28;20796;-74
2022/10/06 09:37:11;;;;;;;6.88;2.70;;;;;;;17.53;61.81;100895.44;5011953;28;20281;-74
2022/10/06 09:39:39;;;;;;;6.97;1.90;;;;;;;17.56;61.55;100892.56;5011640;28;20274;-74
2022/10/06 09:42:13;;;;;;;4.57;1.88;;;;;;;17.61;61.30;100892.25;5012869;28;20529;-75
2022/10/06 09:44:57;;;;;;;3.53;1.70;;;;;;;17.68;61.19;100898.78;5015546;28;20329;-75
2022/10/06 09:47:32;;;;;;;3.70;1.63;;;;;;;17.71;61.11;100898.56;5017500;28;20203;-74
2022/10/06 09:50:08;;;;;;;4.78;2.03;;;;;;;17.75;60.96;100902.69;5016709;28;20217;-74
2022/10/06 09:52:34;;;;;;;4.35;1.90;;;;;;;17.81;60.83;100894.31;5016639;28;20197;-75
2022/10/06 09:55:14;;;;;;;3.10;1.70;;;;;;;17.87;60.75;100888.53;5017428;28;20189;-74
2022/10/06 09:57:49;;;;;;;9.85;2.17;;;;;;;17.97;60.61;100901.16;5016406;28;20192;-75
2022/10/06 10:00:34;;;;;;;4.93;1.50;;;;;;;18.05;60.09;100888.97;5014086;28;20640;-75
2022/10/06 10:03:12;;;;;;;3.58;1.30;;;;;;;18.15;59.36;100889.16;5015190;28;20446;-74
2022/10/06 10:05:44;;;;;;;5.65;1.70;;;;;;;18.24;59.29;100885.78;5014225;28;20965;-75
2022/10/06 10:08:13;;;;;;;7.15;1.63;;;;;;;18.32;58.56;100885.22;5013956;28;20258;-75
2022/10/06 10:10:39;;;;;;;2.95;1.70;;;;;;;18.39;58.28;100880.25;5014857;28;20198;-74
2022/10/06 10:13:40;;;;;;;4.90;1.77;;;;;;;18.48;57.86;100876.91;5013387;28;20217;-74
2022/10/06 10:16:06;;;;;;;3.08;1.38;;;;;;;18.60;57.55;100881.28;5013045;28;20203;-75
2022/10/06 10:18:31;;;;;;;3.83;1.50;;;;;;;18.71;57.17;100881.31;5013666;28;20254;-74
2022/10/06 10:20:59;;;;;;;3.97;1.87;;;;;;;18.84;57.11;100880.38;5014348;28;20869;-75
2022/10/06 10:23:32;;;;;;;4.73;1.57;;;;;;;18.93;56.33;100872.53;5013370;28;20849;-74
2022/10/06 10:26:25;;;;;;;2.30;1.43;;;;;;;19.03;56.04;100880.63;5013874;28;20449;-75
2022/10/06 10:29:00;;;;;;;3.33;1.70;;;;;;;19.06;56.19;100880.38;5012432;28;20453;-75
2022/10/06 10:31:47;;;;;;;6.27;1.70;;;;;;;19.09;56.06;100877.50;5012678;28;20961;-74
2022/10/06 10:34:22;;;;;;;2.70;1.40;;;;;;;19.08;55.45;100874.94;5012623;28;21084;-75
2022/10/06 10:36:53;;;;;;;2.27;1.30;;;;;;;19.10;55.62;100879.19;5012951;28;20439;-75
2022/10/06 10:39:36;;;;;;;3.80;2.30;;;;;;;19.18;54.71;100875.94;5013114;28;20455;-75
2022/10/06 10:42:10;;;;;;;2.87;1.33;;;;;;;19.26;54.52;100877.97;5013167;28;21005;-75
2022/10/06 10:44:42;;;;;;;2.43;1.97;;;;;;;19.38;54.38;100880.50;5012890;28;20918;-75
2022/10/06 10:47:16;;;;;;;2.00;1.47;;;;;;;19.47;54.37;100878.91;5012200;28;20502;-75
2022/10/06 10:49:49;;;;;;;4.97;1.50;;;;;;;19.60;54.12;100879.59;5013050;28;20518;-74
2022/10/06 10:52:19;;;;;;;4.33;1.77;;;;;;;19.67;53.43;100869.31;5012418;28;20433;-75
2022/10/06 10:54:54;;;;;;;4.40;1.30;;;;;;;19.67;52.43;100867.50;5011962;28;20440;-74
2022/10/06 10:57:27;;;;;;;4.00;1.60;;;;;;;19.58;50.32;100862.06;5012035;28;20878;-75
2022/10/06 10:59:59;;;;;;;2.90;1.20;;;;;;;19.66;50.43;100863.16;5012492;28;20555;-75
2022/10/06 11:02:26;;;;;;;2.80;1.90;;;;;;;19.82;50.54;100864.53;5011511;28;20445;-74
2022/10/06 11:05:11;;;;;;;5.07;2.40;;;;;;;19.94;50.36;100865.38;5012075;28;20480;-75
2022/10/06 11:08:12;;;;;;;4.60;1.37;;;;;;;20.03;50.44;100865.44;5011693;28;20447;-75
2022/10/06 11:10:43;;;;;;;3.93;2.73;;;;;;;20.18;50.25;100860.66;5010853;28;20473;-74
2022/10/06 11:13:32;;;;;;;1.60;1.10;;;;;;;20.37;50.13;100859.94;5011214;28;20945;-75
2022/10/06 11:16:15;;;;;;;4.00;1.33;;;;;;;20.63;49.71;100864.88;5011025;28;21066;-74
2022/10/06 11:18:47;;;;;;;8.17;1.40;;;;;;;20.85;49.38;100862.06;5010816;28;20968;-76
2022/10/06 11:21:24;;;;;;;2.23;1.13;;;;;;;20.97;49.06;100862.81;5010903;28;20453;-75
2022/10/06 11:23:56;;;;;;;2.93;1.50;;;;;;;21.06;49.09;100858.50;5010088;28;20658;-75
2022/10/06 11:26:48;;;;;;;2.97;1.17;;;;;;;21.13;48.81;100849.81;5010171;28;20863;-76
2022/10/06 11:29:33;;;;;;;3.00;1.43;;;;;;;21.21;48.82;100857.16;5008824;28;20512;-75
2022/10/06 11:32:19;;;;;;;2.03;1.13;;;;;;;21.15;48.29;100845.19;5009789;28;20462;-75
2022/10/06 11:34:48;;;;;;;3.50;1.20;;;;;;;21.15;48.29;100841.66;5009331;28;20422;-75
2022/10/06 11:37:29;;;;;;;3.47;1.70;;;;;;;21.07;48.28;100839.66;5007235;28;20441;-75
2022/10/06 11:40:21;;;;;;;3.50;1.10;;;;;;;21.06;48.65;100842.47;5009588;28;20464;-75
2022/10/06 11:43:15;;;;;;;2.40;1.53;;;;;;;21.06;48.93;100848.63;5009471;28;20446;-75
2022/10/06 11:46:02;;;;;;;2.43;1.43;;;;;;;21.05;48.93;100840.78;5009105;28;20470;-75
2022/10/06 11:48:30;;;;;;;4.20;1.20;;;;;;;21.04;49.15;100839.94;5010004;28;20595;-75
2022/10/06 11:51:15;;;;;;;2.40;1.50;;;;;;;21.08;48.45;100827.16;5010692;28;20446;-75
2022/10/06 11:53:42;;;;;;;5.63;1.80;;;;;;;20.80;48.85;100826.06;5010386;28;20517;-75
2022/10/06 11:56:16;;;;;;;5.80;1.30;;;;;;;20.87;49.10;100829.88;5009696;28;20448;-75
2022/10/06 11:58:54;;;;;;;4.63;1.60;;;;;;;20.93;49.26;100822.19;5009853;28;20573;-75
2022/10/06 12:01:36;;;;;;;3.87;1.80;;;;;;;21.07;49.16;100826.31;5010168;28;20516;-75
2022/10/06 12:04:07;;;;;;;2.80;1.37;;;;;;;21.19;49.13;100822.53;5009961;28;20978;-76